sensor_id;sensor_type;location;lat;lon;timestamp;temperature;humidity
22950;DHT22;11641;51.018;4.474;2022-11-28T00:02:13;10.70;99.90
22950;DHT22;11641;51.018;4.474;2022-11-28T00:04:39;10.70;99.90
22950;DHT22;11641;51.018;4.474;2022-11-28T00:07:09;10.70;99.90
22950;DHT22;11641;51.018;4.474;2022-11-28T00:09:34;10.70;99.90
22950;DHT22;11641;51.018;4.474;2022-11-28T00:12:00;10.70;99.90
22950;DHT22;11641;51.018;4.474;2022-11-28T00:14:25;10.80;99.90
22950;DHT22;11641;51.018;4.474;2022-11-28T00:16:51;10.80;99.90
22950;DHT22;11641;51.018;4.474;2022-11-28T00:19:17;10.80;99.90
22950;DHT22;11641;51.018;4.474;2022-11-28T00:21:43;10.70;99.90
22950;DHT22;11641;51.018;4.474;2022-11-28T00:24:09;10.70;99.90
22950;DHT22;11641;51.018;4.474;2022-11-28T00:26:35;10.80;99.90
22950;DHT22;11641;51.018;4.474;2022-11-28T00:29:03;10.70;99.90
22950;DHT22;11641;51.018;4.474;2022-11-28T00:31:30;10.60;99.90
22950;DHT22;11641;51.018;4.474;2022-11-28T00:33:57;10.60;99.90
22950;DHT22;11641;51.018;4.474;2022-11-28T00:36:23;10.50;99.90
22950;DHT22;11641;51.018;4.474;2022-11-28T00:38:50;10.50;99.90
22950;DHT22;11641;51.018;4.474;2022-11-28T00:41:18;10.50;99.90
22950;DHT22;11641;51.018;4.474;2022-11-28T00:43:45;10.40;99.90
22950;DHT22;11641;51.018;4.474;2022-11-28T00:46:11;10.30;99.90
22950;DHT22;11641;51.018;4.474;2022-11-28T00:48:37;10.00;99.90
22950;DHT22;11641;51.018;4.474;2022-11-28T00:51:07;9.90;99.90
22950;DHT22;11641;51.018;4.474;2022-11-28T00:53:33;9.80;99.90
22950;DHT22;11641;51.018;4.474;2022-11-28T00:55:59;9.70;99.90
22950;DHT22;11641;51.018;4.474;2022-11-28T00:58:25;9.60;99.90
22950;DHT22;11641;51.018;4.474;2022-11-28T01:00:51;9.70;99.90
22950;DHT22;11641;51.018;4.474;2022-11-28T01:03:16;9.80;99.90
22950;DHT22;11641;51.018;4.474;2022-11-28T01:05:42;9.70;99.90
22950;DHT22;11641;51.018;4.474;2022-11-28T01:08:09;9.60;99.90
22950;DHT22;11641;51.018;4.474;2022-11-28T01:10:38;9.60;99.90
22950;DHT22;11641;51.018;4.474;2022-11-28T01:13:04;9.60;99.90
22950;DHT22;11641;51.018;4.474;2022-11-28T01:15:30;9.60;99.90
22950;DHT22;11641;51.018;4.474;2022-11-28T01:17:56;9.60;99.90
22950;DHT22;11641;51.018;4.474;2022-11-28T01:20:21;9.60;99.90
22950;DHT22;11641;51.018;4.474;2022-11-28T01:22:47;9.60;99.90
22950;DHT22;11641;51.018;4.474;2022-11-28T01:25:12;9.70;99.90
22950;DHT22;11641;51.018;4.474;2022-11-28T01:27:38;9.70;99.90
22950;DHT22;11641;51.018;4.474;2022-11-28T01:30:04;9.70;99.90
22950;DHT22;11641;51.018;4.474;2022-11-28T01:32:29;9.70;99.90
22950;DHT22;11641;51.018;4.474;2022-11-28T01:34:56;9.70;99.90
22950;DHT22;11641;51.018;4.474;2022-11-28T01:37:22;9.70;99.90
22950;DHT22;11641;51.018;4.474;2022-11-28T01:39:48;9.80;99.90
22950;DHT22;11641;51.018;4.474;2022-11-28T01:42:17;9.60;99.90
22950;DHT22;11641;51.018;4.474;2022-11-28T01:47:15;9.70;99.90
22950;DHT22;11641;51.018;4.474;2022-11-28T01:49:42;9.80;99.90
22950;DHT22;11641;51.018;4.474;2022-11-28T01:52:10;9.70;99.90
22950;DHT22;11641;51.018;4.474;2022-11-28T01:54:37;9.80;99.90
22950;DHT22;11641;51.018;4.474;2022-11-28T01:57:05;9.70;99.90
22950;DHT22;11641;51.018;4.474;2022-11-28T01:59:34;9.80;99.90
22950;DHT22;11641;51.018;4.474;2022-11-28T02:02:03;9.70;99.90
22950;DHT22;11641;51.018;4.474;2022-11-28T02:04:30;9.80;99.90
22950;DHT22;11641;51.018;4.474;2022-11-28T02:06:58;9.80;99.90
22950;DHT22;11641;51.018;4.474;2022-11-28T02:09:24;9.90;99.90
22950;DHT22;11641;51.018;4.474;2022-11-28T02:30:09;9.60;99.90
22950;DHT22;11641;51.018;4.474;2022-11-28T02:35:25;9.50;99.90
22950;DHT22;11641;51.018;4.474;2022-11-28T02:37:57;9.70;99.90
22950;DHT22;11641;51.018;4.474;2022-11-28T02:40:29;9.70;99.90
22950;DHT22;11641;51.018;4.474;2022-11-28T02:48:14;9.70;99.90
22950;DHT22;11641;51.018;4.474;2022-11-28T02:50:53;9.70;99.90
22950;DHT22;11641;51.018;4.474;2022-11-28T02:53:23;9.80;99.90
22950;DHT22;11641;51.018;4.474;2022-11-28T02:55:50;9.80;99.90
22950;DHT22;11641;51.018;4.474;2022-11-28T02:58:16;9.80;99.90
22950;DHT22;11641;51.018;4.474;2022-11-28T03:00:43;9.90;99.90
22950;DHT22;11641;51.018;4.474;2022-11-28T03:08:36;9.70;99.90
22950;DHT22;11641;51.018;4.474;2022-11-28T03:11:19;9.70;99.90
22950;DHT22;11641;51.018;4.474;2022-11-28T03:19:33;9.60;99.90
22950;DHT22;11641;51.018;4.474;2022-11-28T03:29:48;9.50;99.90
22950;DHT22;11641;51.018;4.474;2022-11-28T03:32:26;9.60;99.90
22950;DHT22;11641;51.018;4.474;2022-11-28T03:34:56;9.50;99.90
22950;DHT22;11641;51.018;4.474;2022-11-28T03:37:28;9.50;99.90
22950;DHT22;11641;51.018;4.474;2022-11-28T03:39:59;9.50;99.90
22950;DHT22;11641;51.018;4.474;2022-11-28T03:42:28;9.60;99.90
22950;DHT22;11641;51.018;4.474;2022-11-28T03:45:02;9.50;99.90
22950;DHT22;11641;51.018;4.474;2022-11-28T03:47:30;9.60;99.90
22950;DHT22;11641;51.018;4.474;2022-11-28T03:49:57;9.60;99.90
22950;DHT22;11641;51.018;4.474;2022-11-28T03:52:28;9.60;99.90
22950;DHT22;11641;51.018;4.474;2022-11-28T03:54:55;9.70;99.90
22950;DHT22;11641;51.018;4.474;2022-11-28T03:57:32;9.50;99.90
22950;DHT22;11641;51.018;4.474;2022-11-28T03:59:59;9.50;99.90
22950;DHT22;11641;51.018;4.474;2022-11-28T04:07:39;9.60;99.90
22950;DHT22;11641;51.018;4.474;2022-11-28T04:15:15;9.80;99.90
22950;DHT22;11641;51.018;4.474;2022-11-28T04:18:01;9.80;99.90
22950;DHT22;11641;51.018;4.474;2022-11-28T04:20:34;9.80;99.90
22950;DHT22;11641;51.018;4.474;2022-11-28T04:23:04;9.80;99.90
22950;DHT22;11641;51.018;4.474;2022-11-28T04:25:31;9.90;99.90
22950;DHT22;11641;51.018;4.474;2022-11-28T04:28:01;9.90;99.90
22950;DHT22;11641;51.018;4.474;2022-11-28T04:30:28;10.00;99.90
22950;DHT22;11641;51.018;4.474;2022-11-28T04:32:56;9.80;99.90
22950;DHT22;11641;51.018;4.474;2022-11-28T04:35:28;9.90;99.90
22950;DHT22;11641;51.018;4.474;2022-11-28T04:37:55;9.90;99.90
22950;DHT22;11641;51.018;4.474;2022-11-28T04:40:22;9.90;99.90
22950;DHT22;11641;51.018;4.474;2022-11-28T04:43:00;9.80;99.90
22950;DHT22;11641;51.018;4.474;2022-11-28T04:45:30;9.60;99.90
22950;DHT22;11641;51.018;4.474;2022-11-28T04:47:56;9.50;99.90
22950;DHT22;11641;51.018;4.474;2022-11-28T04:50:22;9.50;99.90
22950;DHT22;11641;51.018;4.474;2022-11-28T04:58:24;9.70;99.90
22950;DHT22;11641;51.018;4.474;2022-11-28T05:00:52;9.80;99.90
22950;DHT22;11641;51.018;4.474;2022-11-28T05:03:19;9.70;99.90
22950;DHT22;11641;51.018;4.474;2022-11-28T05:05:47;9.70;99.90
22950;DHT22;11641;51.018;4.474;2022-11-28T05:08:12;9.70;99.90
22950;DHT22;11641;51.018;4.474;2022-11-28T05:10:38;9.70;99.90
22950;DHT22;11641;51.018;4.474;2022-11-28T05:13:04;9.80;99.90
22950;DHT22;11641;51.018;4.474;2022-11-28T05:15:32;9.60;99.90
22950;DHT22;11641;51.018;4.474;2022-11-28T05:18:01;9.60;99.90
22950;DHT22;11641;51.018;4.474;2022-11-28T05:20:26;9.70;99.90
22950;DHT22;11641;51.018;4.474;2022-11-28T05:22:52;9.80;99.90
22950;DHT22;11641;51.018;4.474;2022-11-28T05:25:18;9.80;99.90
22950;DHT22;11641;51.018;4.474;2022-11-28T05:27:44;9.80;99.90
22950;DHT22;11641;51.018;4.474;2022-11-28T05:30:10;9.80;99.90
22950;DHT22;11641;51.018;4.474;2022-11-28T05:32:36;9.90;99.90
22950;DHT22;11641;51.018;4.474;2022-11-28T05:35:03;9.90;99.90
22950;DHT22;11641;51.018;4.474;2022-11-28T05:37:28;9.90;99.90
22950;DHT22;11641;51.018;4.474;2022-11-28T05:39:54;10.00;99.90
22950;DHT22;11641;51.018;4.474;2022-11-28T05:42:20;10.00;99.90
22950;DHT22;11641;51.018;4.474;2022-11-28T05:44:45;10.00;99.90
22950;DHT22;11641;51.018;4.474;2022-11-28T05:47:12;9.90;99.90
22950;DHT22;11641;51.018;4.474;2022-11-28T05:49:38;10.00;99.90
22950;DHT22;11641;51.018;4.474;2022-11-28T05:52:04;10.00;99.90
22950;DHT22;11641;51.018;4.474;2022-11-28T05:54:29;10.00;99.90
22950;DHT22;11641;51.018;4.474;2022-11-28T05:56:55;9.90;99.90
22950;DHT22;11641;51.018;4.474;2022-11-28T05:59:21;10.00;99.90
22950;DHT22;11641;51.018;4.474;2022-11-28T06:01:46;10.00;99.90
22950;DHT22;11641;51.018;4.474;2022-11-28T06:04:13;9.90;99.90
22950;DHT22;11641;51.018;4.474;2022-11-28T06:06:38;9.80;99.90
22950;DHT22;11641;51.018;4.474;2022-11-28T06:09:04;9.80;99.90
22950;DHT22;11641;51.018;4.474;2022-11-28T06:11:31;9.90;99.90
22950;DHT22;11641;51.018;4.474;2022-11-28T06:13:57;9.80;99.90
22950;DHT22;11641;51.018;4.474;2022-11-28T06:16:23;9.70;99.90
22950;DHT22;11641;51.018;4.474;2022-11-28T06:18:53;9.80;99.90
22950;DHT22;11641;51.018;4.474;2022-11-28T06:21:19;9.90;99.90
22950;DHT22;11641;51.018;4.474;2022-11-28T06:23:45;9.90;99.90
22950;DHT22;11641;51.018;4.474;2022-11-28T06:26:12;10.00;99.90
22950;DHT22;11641;51.018;4.474;2022-11-28T06:28:38;9.90;99.90
22950;DHT22;11641;51.018;4.474;2022-11-28T06:31:08;10.00;99.90
22950;DHT22;11641;51.018;4.474;2022-11-28T06:33:34;10.10;99.90
22950;DHT22;11641;51.018;4.474;2022-11-28T06:36:00;10.10;99.90
22950;DHT22;11641;51.018;4.474;2022-11-28T06:38:28;10.10;99.90
22950;DHT22;11641;51.018;4.474;2022-11-28T06:41:01;10.10;99.90
22950;DHT22;11641;51.018;4.474;2022-11-28T06:43:27;10.00;99.90
22950;DHT22;11641;51.018;4.474;2022-11-28T06:45:53;10.00;99.90
22950;DHT22;11641;51.018;4.474;2022-11-28T06:48:21;10.10;99.90
22950;DHT22;11641;51.018;4.474;2022-11-28T06:50:47;10.00;99.90
22950;DHT22;11641;51.018;4.474;2022-11-28T06:53:13;10.00;99.90
22950;DHT22;11641;51.018;4.474;2022-11-28T06:55:38;10.20;99.90
22950;DHT22;11641;51.018;4.474;2022-11-28T06:58:04;10.20;99.90
22950;DHT22;11641;51.018;4.474;2022-11-28T07:00:30;10.30;99.90
22950;DHT22;11641;51.018;4.474;2022-11-28T07:02:58;10.30;99.90
22950;DHT22;11641;51.018;4.474;2022-11-28T07:05:24;10.30;99.90
22950;DHT22;11641;51.018;4.474;2022-11-28T07:07:54;10.40;99.90
22950;DHT22;11641;51.018;4.474;2022-11-28T07:10:20;10.50;99.90
22950;DHT22;11641;51.018;4.474;2022-11-28T07:12:51;10.40;99.90
22950;DHT22;11641;51.018;4.474;2022-11-28T07:15:17;10.50;99.90
22950;DHT22;11641;51.018;4.474;2022-11-28T07:17:42;10.40;99.90
22950;DHT22;11641;51.018;4.474;2022-11-28T07:20:08;10.40;99.90
22950;DHT22;11641;51.018;4.474;2022-11-28T07:22:35;10.40;99.90
22950;DHT22;11641;51.018;4.474;2022-11-28T07:25:01;10.40;99.90
22950;DHT22;11641;51.018;4.474;2022-11-28T07:27:27;10.30;99.90
22950;DHT22;11641;51.018;4.474;2022-11-28T07:29:53;10.20;99.90
22950;DHT22;11641;51.018;4.474;2022-11-28T07:32:19;10.40;99.90
22950;DHT22;11641;51.018;4.474;2022-11-28T07:34:45;10.40;99.90
22950;DHT22;11641;51.018;4.474;2022-11-28T07:37:12;10.40;99.90
22950;DHT22;11641;51.018;4.474;2022-11-28T07:39:37;10.20;99.90
22950;DHT22;11641;51.018;4.474;2022-11-28T07:42:03;10.20;99.90
22950;DHT22;11641;51.018;4.474;2022-11-28T07:44:31;10.00;99.90
22950;DHT22;11641;51.018;4.474;2022-11-28T07:46:57;10.10;99.90
22950;DHT22;11641;51.018;4.474;2022-11-28T07:49:23;10.10;99.90
22950;DHT22;11641;51.018;4.474;2022-11-28T07:51:48;10.10;99.90
22950;DHT22;11641;51.018;4.474;2022-11-28T07:54:15;10.10;99.90
22950;DHT22;11641;51.018;4.474;2022-11-28T07:56:41;10.20;99.90
22950;DHT22;11641;51.018;4.474;2022-11-28T07:59:06;10.30;99.90
22950;DHT22;11641;51.018;4.474;2022-11-28T08:01:33;10.30;99.90
22950;DHT22;11641;51.018;4.474;2022-11-28T08:04:00;10.30;99.90
22950;DHT22;11641;51.018;4.474;2022-11-28T08:06:27;10.40;99.90
22950;DHT22;11641;51.018;4.474;2022-11-28T08:08:55;10.50;99.90
22950;DHT22;11641;51.018;4.474;2022-11-28T08:11:22;10.40;99.90
22950;DHT22;11641;51.018;4.474;2022-11-28T08:13:48;10.30;99.90
22950;DHT22;11641;51.018;4.474;2022-11-28T08:16:15;10.40;99.90
22950;DHT22;11641;51.018;4.474;2022-11-28T08:18:41;10.40;99.90
22950;DHT22;11641;51.018;4.474;2022-11-28T08:21:14;10.30;99.90
22950;DHT22;11641;51.018;4.474;2022-11-28T08:23:40;10.20;99.90
22950;DHT22;11641;51.018;4.474;2022-11-28T08:26:07;10.20;99.90
22950;DHT22;11641;51.018;4.474;2022-11-28T08:28:33;10.20;99.90
22950;DHT22;11641;51.018;4.474;2022-11-28T08:30:59;10.30;99.90
22950;DHT22;11641;51.018;4.474;2022-11-28T08:33:32;10.30;99.90
22950;DHT22;11641;51.018;4.474;2022-11-28T08:35:58;10.50;99.90
22950;DHT22;11641;51.018;4.474;2022-11-28T08:38:23;10.50;99.90
22950;DHT22;11641;51.018;4.474;2022-11-28T08:40:49;10.60;99.90
22950;DHT22;11641;51.018;4.474;2022-11-28T08:43:14;10.40;99.90
22950;DHT22;11641;51.018;4.474;2022-11-28T08:45:40;10.60;99.90
22950;DHT22;11641;51.018;4.474;2022-11-28T08:48:06;10.60;99.90
22950;DHT22;11641;51.018;4.474;2022-11-28T08:50:32;10.70;99.90
22950;DHT22;11641;51.018;4.474;2022-11-28T08:52:58;10.70;99.90
22950;DHT22;11641;51.018;4.474;2022-11-28T08:55:24;10.60;99.90
22950;DHT22;11641;51.018;4.474;2022-11-28T08:57:50;10.70;99.90
22950;DHT22;11641;51.018;4.474;2022-11-28T09:00:16;10.50;99.90
22950;DHT22;11641;51.018;4.474;2022-11-28T09:02:41;10.60;99.90
22950;DHT22;11641;51.018;4.474;2022-11-28T09:05:07;10.60;99.90
22950;DHT22;11641;51.018;4.474;2022-11-28T09:07:33;10.70;99.90
22950;DHT22;11641;51.018;4.474;2022-11-28T09:09:58;10.60;99.90
22950;DHT22;11641;51.018;4.474;2022-11-28T09:12:24;10.70;99.90
22950;DHT22;11641;51.018;4.474;2022-11-28T09:14:49;10.80;99.90
22950;DHT22;11641;51.018;4.474;2022-11-28T09:17:16;10.90;99.90
22950;DHT22;11641;51.018;4.474;2022-11-28T09:19:42;10.90;99.90
22950;DHT22;11641;51.018;4.474;2022-11-28T09:22:08;11.00;99.90
22950;DHT22;11641;51.018;4.474;2022-11-28T09:24:33;10.90;99.90
22950;DHT22;11641;51.018;4.474;2022-11-28T09:26:59;11.00;99.90
22950;DHT22;11641;51.018;4.474;2022-11-28T09:29:25;11.20;99.90
22950;DHT22;11641;51.018;4.474;2022-11-28T09:31:51;11.10;99.90
22950;DHT22;11641;51.018;4.474;2022-11-28T09:34:17;11.30;99.90
22950;DHT22;11641;51.018;4.474;2022-11-28T09:36:43;11.40;99.90
22950;DHT22;11641;51.018;4.474;2022-11-28T09:39:11;11.50;99.90
22950;DHT22;11641;51.018;4.474;2022-11-28T09:41:41;11.40;99.90
22950;DHT22;11641;51.018;4.474;2022-11-28T09:44:14;11.30;99.90
22950;DHT22;11641;51.018;4.474;2022-11-28T09:46:40;11.40;99.90
22950;DHT22;11641;51.018;4.474;2022-11-28T09:51:52;11.60;99.90
22950;DHT22;11641;51.018;4.474;2022-11-28T09:54:24;11.70;99.90
22950;DHT22;11641;51.018;4.474;2022-11-28T09:56:54;11.80;99.90
22950;DHT22;11641;51.018;4.474;2022-11-28T09:59:28;11.80;99.90
22950;DHT22;11641;51.018;4.474;2022-11-28T10:04:24;11.60;99.90
22950;DHT22;11641;51.018;4.474;2022-11-28T10:07:09;11.70;99.90
22950;DHT22;11641;51.018;4.474;2022-11-28T10:14:42;12.60;99.90
22950;DHT22;11641;51.018;4.474;2022-11-28T10:17:20;12.70;99.90
22950;DHT22;11641;51.018;4.474;2022-11-28T10:25:03;13.50;99.90
22950;DHT22;11641;51.018;4.474;2022-11-28T10:27:31;13.40;99.90
22950;DHT22;11641;51.018;4.474;2022-11-28T10:30:00;13.00;99.90
22950;DHT22;11641;51.018;4.474;2022-11-28T10:32:37;12.70;99.90
22950;DHT22;11641;51.018;4.474;2022-11-28T10:35:24;12.90;99.90
22950;DHT22;11641;51.018;4.474;2022-11-28T10:37:51;12.80;99.90
22950;DHT22;11641;51.018;4.474;2022-11-28T10:40:23;12.80;99.90
22950;DHT22;11641;51.018;4.474;2022-11-28T10:43:02;12.60;99.90
22950;DHT22;11641;51.018;4.474;2022-11-28T10:48:18;12.60;99.90
22950;DHT22;11641;51.018;4.474;2022-11-28T10:51:09;12.60;99.90
22950;DHT22;11641;51.018;4.474;2022-11-28T10:53:55;12.90;99.90
22950;DHT22;11641;51.018;4.474;2022-11-28T10:56:42;13.10;99.90
22950;DHT22;11641;51.018;4.474;2022-11-28T11:01:49;13.10;99.90
22950;DHT22;11641;51.018;4.474;2022-11-28T11:04:16;13.30;99.90
22950;DHT22;11641;51.018;4.474;2022-11-28T11:06:45;13.40;99.90
22950;DHT22;11641;51.018;4.474;2022-11-28T11:09:14;13.50;99.90
22950;DHT22;11641;51.018;4.474;2022-11-28T11:11:41;13.60;99.90
22950;DHT22;11641;51.018;4.474;2022-11-28T11:14:13;13.50;99.90
22950;DHT22;11641;51.018;4.474;2022-11-28T11:17:12;13.40;99.90
22950;DHT22;11641;51.018;4.474;2022-11-28T11:19:35;13.40;99.90
22950;DHT22;11641;51.018;4.474;2022-11-28T11:24:33;13.50;99.90
22950;DHT22;11641;51.018;4.474;2022-11-28T11:27:03;13.40;99.90
22950;DHT22;11641;51.018;4.474;2022-11-28T11:29:34;13.40;99.90
22950;DHT22;11641;51.018;4.474;2022-11-28T11:32:01;13.40;99.90
22950;DHT22;11641;51.018;4.474;2022-11-28T11:34:37;13.20;99.90
22950;DHT22;11641;51.018;4.474;2022-11-28T11:37:22;13.10;99.90
22950;DHT22;11641;51.018;4.474;2022-11-28T11:39:54;13.10;99.90
22950;DHT22;11641;51.018;4.474;2022-11-28T11:42:29;12.90;99.90
22950;DHT22;11641;51.018;4.474;2022-11-28T11:44:56;12.50;99.90
22950;DHT22;11641;51.018;4.474;2022-11-28T11:47:40;12.70;99.90
22950;DHT22;11641;51.018;4.474;2022-11-28T11:50:13;12.70;99.90
22950;DHT22;11641;51.018;4.474;2022-11-28T11:52:39;12.90;99.90
22950;DHT22;11641;51.018;4.474;2022-11-28T11:55:14;12.80;99.90
22950;DHT22;11641;51.018;4.474;2022-11-28T11:57:45;12.90;99.90
22950;DHT22;11641;51.018;4.474;2022-11-28T12:02:40;12.80;99.90
22950;DHT22;11641;51.018;4.474;2022-11-28T12:05:10;12.80;99.90
22950;DHT22;11641;51.018;4.474;2022-11-28T12:07:57;13.00;99.90
22950;DHT22;11641;51.018;4.474;2022-11-28T12:10:25;12.90;99.90
22950;DHT22;11641;51.018;4.474;2022-11-28T12:12:52;12.90;99.90
22950;DHT22;11641;51.018;4.474;2022-11-28T12:20:37;12.90;99.90
22950;DHT22;11641;51.018;4.474;2022-11-28T12:26:13;13.20;99.90
22950;DHT22;11641;51.018;4.474;2022-11-28T12:31:26;13.00;99.90
22950;DHT22;11641;51.018;4.474;2022-11-28T12:33:57;12.90;99.90
22950;DHT22;11641;51.018;4.474;2022-11-28T12:36:35;13.00;99.90
22950;DHT22;11641;51.018;4.474;2022-11-28T12:39:20;12.90;99.90
22950;DHT22;11641;51.018;4.474;2022-11-28T12:44:48;12.80;99.90
22950;DHT22;11641;51.018;4.474;2022-11-28T12:53:04;13.20;99.90
22950;DHT22;11641;51.018;4.474;2022-11-28T12:58:13;13.40;99.90
22950;DHT22;11641;51.018;4.474;2022-11-28T13:13:33;12.40;99.90
22950;DHT22;11641;51.018;4.474;2022-11-28T13:18:39;12.60;99.90
22950;DHT22;11641;51.018;4.474;2022-11-28T13:26:23;13.00;99.90
22950;DHT22;11641;51.018;4.474;2022-11-28T13:28:57;13.10;99.90
22950;DHT22;11641;51.018;4.474;2022-11-28T13:31:27;12.90;99.90
22950;DHT22;11641;51.018;4.474;2022-11-28T13:33:55;12.70;99.90
22950;DHT22;11641;51.018;4.474;2022-11-28T13:44:11;12.50;99.90
22950;DHT22;11641;51.018;4.474;2022-11-28T13:46:41;12.60;99.90
22950;DHT22;11641;51.018;4.474;2022-11-28T13:49:08;12.70;99.90
22950;DHT22;11641;51.018;4.474;2022-11-28T13:51:34;12.70;99.90
22950;DHT22;11641;51.018;4.474;2022-11-28T13:56:44;12.40;99.90
22950;DHT22;11641;51.018;4.474;2022-11-28T13:59:15;12.50;99.90
22950;DHT22;11641;51.018;4.474;2022-11-28T14:01:42;12.40;99.90
22950;DHT22;11641;51.018;4.474;2022-11-28T14:04:10;12.40;99.90
22950;DHT22;11641;51.018;4.474;2022-11-28T14:06:41;12.60;99.90
22950;DHT22;11641;51.018;4.474;2022-11-28T14:27:22;12.40;99.90
22950;DHT22;11641;51.018;4.474;2022-11-28T14:29:50;12.50;99.90
22950;DHT22;11641;51.018;4.474;2022-11-28T14:32:39;12.50;99.90
22950;DHT22;11641;51.018;4.474;2022-11-28T14:35:17;12.40;99.90
22950;DHT22;11641;51.018;4.474;2022-11-28T14:38:38;12.10;99.90
22950;DHT22;11641;51.018;4.474;2022-11-28T14:43:24;12.30;99.90
22950;DHT22;11641;51.018;4.474;2022-11-28T14:46:17;12.40;99.90
22950;DHT22;11641;51.018;4.474;2022-11-28T14:48:35;12.30;99.90
22950;DHT22;11641;51.018;4.474;2022-11-28T14:51:04;12.20;99.90
22950;DHT22;11641;51.018;4.474;2022-11-28T14:56:19;12.20;99.90
22950;DHT22;11641;51.018;4.474;2022-11-28T14:58:47;12.00;99.90
22950;DHT22;11641;51.018;4.474;2022-11-28T15:01:14;12.10;99.90
22950;DHT22;11641;51.018;4.474;2022-11-28T15:06:32;12.10;99.90
22950;DHT22;11641;51.018;4.474;2022-11-28T15:16:27;11.90;99.90
22950;DHT22;11641;51.018;4.474;2022-11-28T15:18:57;12.00;99.90
22950;DHT22;11641;51.018;4.474;2022-11-28T15:21:23;11.90;99.90
22950;DHT22;11641;51.018;4.474;2022-11-28T15:23:49;11.90;99.90
22950;DHT22;11641;51.018;4.474;2022-11-28T15:26:26;11.90;99.90
22950;DHT22;11641;51.018;4.474;2022-11-28T15:29:07;11.90;99.90
22950;DHT22;11641;51.018;4.474;2022-11-28T15:31:32;12.00;99.90
22950;DHT22;11641;51.018;4.474;2022-11-28T15:33:58;12.00;99.90
22950;DHT22;11641;51.018;4.474;2022-11-28T15:36:27;11.90;99.90
22950;DHT22;11641;51.018;4.474;2022-11-28T15:38:54;11.90;99.90
22950;DHT22;11641;51.018;4.474;2022-11-28T15:41:23;12.00;99.90
22950;DHT22;11641;51.018;4.474;2022-11-28T15:43:49;12.00;99.90
22950;DHT22;11641;51.018;4.474;2022-11-28T15:46:19;12.10;99.90
22950;DHT22;11641;51.018;4.474;2022-11-28T15:48:48;12.20;99.90
22950;DHT22;11641;51.018;4.474;2022-11-28T15:51:17;12.10;99.90
22950;DHT22;11641;51.018;4.474;2022-11-28T15:53:46;11.90;99.90
22950;DHT22;11641;51.018;4.474;2022-11-28T15:56:12;11.90;99.90
22950;DHT22;11641;51.018;4.474;2022-11-28T15:58:39;11.80;99.90
22950;DHT22;11641;51.018;4.474;2022-11-28T16:01:24;11.80;99.90
22950;DHT22;11641;51.018;4.474;2022-11-28T16:03:58;11.80;99.90
22950;DHT22;11641;51.018;4.474;2022-11-28T16:06:25;11.80;99.90
22950;DHT22;11641;51.018;4.474;2022-11-28T16:08:57;11.80;99.90
22950;DHT22;11641;51.018;4.474;2022-11-28T16:11:24;11.80;99.90
22950;DHT22;11641;51.018;4.474;2022-11-28T16:13:51;11.70;99.90
22950;DHT22;11641;51.018;4.474;2022-11-28T16:16:18;11.70;99.90
22950;DHT22;11641;51.018;4.474;2022-11-28T16:18:48;11.60;99.90
22950;DHT22;11641;51.018;4.474;2022-11-28T16:21:15;11.50;99.90
22950;DHT22;11641;51.018;4.474;2022-11-28T16:23:43;11.40;99.90
22950;DHT22;11641;51.018;4.474;2022-11-28T16:26:22;11.30;99.90
22950;DHT22;11641;51.018;4.474;2022-11-28T16:28:55;11.20;99.90
22950;DHT22;11641;51.018;4.474;2022-11-28T16:31:22;11.10;99.90
22950;DHT22;11641;51.018;4.474;2022-11-28T16:33:49;11.10;99.90
22950;DHT22;11641;51.018;4.474;2022-11-28T16:36:25;11.00;99.90
22950;DHT22;11641;51.018;4.474;2022-11-28T16:39:05;10.90;99.90
22950;DHT22;11641;51.018;4.474;2022-11-28T16:41:37;10.90;99.90
22950;DHT22;11641;51.018;4.474;2022-11-28T16:44:10;10.80;99.90
22950;DHT22;11641;51.018;4.474;2022-11-28T16:46:40;10.80;99.90
22950;DHT22;11641;51.018;4.474;2022-11-28T16:49:30;10.70;99.90
22950;DHT22;11641;51.018;4.474;2022-11-28T16:52:13;10.70;99.90
22950;DHT22;11641;51.018;4.474;2022-11-28T16:54:45;10.70;99.90
22950;DHT22;11641;51.018;4.474;2022-11-28T16:57:11;10.80;99.90
22950;DHT22;11641;51.018;4.474;2022-11-28T16:59:39;10.80;99.90
22950;DHT22;11641;51.018;4.474;2022-11-28T17:02:17;10.80;99.90
22950;DHT22;11641;51.018;4.474;2022-11-28T17:04:46;10.90;99.90
22950;DHT22;11641;51.018;4.474;2022-11-28T17:07:13;11.00;99.90
22950;DHT22;11641;51.018;4.474;2022-11-28T17:09:40;11.00;99.90
22950;DHT22;11641;51.018;4.474;2022-11-28T17:12:17;11.10;99.90
22950;DHT22;11641;51.018;4.474;2022-11-28T17:14:46;11.10;99.90
22950;DHT22;11641;51.018;4.474;2022-11-28T17:17:12;11.20;99.90
22950;DHT22;11641;51.018;4.474;2022-11-28T17:19:40;11.20;99.90
22950;DHT22;11641;51.018;4.474;2022-11-28T17:22:06;11.20;99.90
22950;DHT22;11641;51.018;4.474;2022-11-28T17:24:35;11.20;99.90
22950;DHT22;11641;51.018;4.474;2022-11-28T17:27:01;11.20;99.90
22950;DHT22;11641;51.018;4.474;2022-11-28T17:29:27;11.10;99.90
22950;DHT22;11641;51.018;4.474;2022-11-28T17:31:53;11.00;99.90
22950;DHT22;11641;51.018;4.474;2022-11-28T17:34:22;10.90;99.90
22950;DHT22;11641;51.018;4.474;2022-11-28T17:36:49;10.90;99.90
22950;DHT22;11641;51.018;4.474;2022-11-28T17:39:16;10.80;99.90
22950;DHT22;11641;51.018;4.474;2022-11-28T17:41:42;10.80;99.90
22950;DHT22;11641;51.018;4.474;2022-11-28T17:46:42;10.80;99.90
22950;DHT22;11641;51.018;4.474;2022-11-28T17:49:11;10.80;99.90
22950;DHT22;11641;51.018;4.474;2022-11-28T17:51:37;10.90;99.90
22950;DHT22;11641;51.018;4.474;2022-11-28T17:54:03;11.00;99.90
22950;DHT22;11641;51.018;4.474;2022-11-28T17:56:29;11.00;99.90
22950;DHT22;11641;51.018;4.474;2022-11-28T17:58:57;11.00;99.90
22950;DHT22;11641;51.018;4.474;2022-11-28T18:01:24;11.00;99.90
22950;DHT22;11641;51.018;4.474;2022-11-28T18:03:50;11.10;99.90
22950;DHT22;11641;51.018;4.474;2022-11-28T18:06:17;11.20;99.90
22950;DHT22;11641;51.018;4.474;2022-11-28T18:08:44;11.20;99.90
22950;DHT22;11641;51.018;4.474;2022-11-28T18:11:10;11.20;99.90
22950;DHT22;11641;51.018;4.474;2022-11-28T18:13:37;11.20;99.90
22950;DHT22;11641;51.018;4.474;2022-11-28T18:16:13;11.10;99.90
22950;DHT22;11641;51.018;4.474;2022-11-28T18:18:41;11.10;99.90
22950;DHT22;11641;51.018;4.474;2022-11-28T18:21:07;11.00;99.90
22950;DHT22;11641;51.018;4.474;2022-11-28T18:23:36;11.00;99.90
22950;DHT22;11641;51.018;4.474;2022-11-28T18:26:10;11.00;99.90
22950;DHT22;11641;51.018;4.474;2022-11-28T18:28:36;11.00;99.90
22950;DHT22;11641;51.018;4.474;2022-11-28T18:31:18;11.00;99.90
22950;DHT22;11641;51.018;4.474;2022-11-28T18:33:43;11.00;99.90
22950;DHT22;11641;51.018;4.474;2022-11-28T18:36:10;10.90;99.90
22950;DHT22;11641;51.018;4.474;2022-11-28T18:38:37;10.90;99.90
22950;DHT22;11641;51.018;4.474;2022-11-28T18:41:03;10.90;99.90
22950;DHT22;11641;51.018;4.474;2022-11-28T18:43:30;10.80;99.90
22950;DHT22;11641;51.018;4.474;2022-11-28T18:46:00;10.80;99.90